Pagrindinis puslapis
METAR-TAF:

METAR-TAF

Oro uostai :

Fasa, Iranas

platuma: 28-58N, ilguma: 053-41E, Aukštis: 1383 m

Dabartinis oras

Ataskaita buvo paskelbta 35 minutes, ne 10:00 UTC
Vėjas 6 kt iš Rytų/Pietryčių
Temperatūra 37°C
Drėgmė 9%
Slėgis 1009 hPa
Matomumas 10 km arba daugiau
nėra debesų žemiau 1500 m ir nėra kamuolinių lietaus debesų

METAR: OISF 221000Z 11006KT CAVOK 37/M01 Q1009 A2980

Laikas: 14:05 (10:35 UTC)


TAF: trūkstamas

Orai ataskaitas ir orų prognozės (METAR, TAF).

turimą stotys yra geltonos ir raudonos taškus žemėlapyje.

Perkelti pele per norėdami pamatyti stoties vardą.

Tada spustelėkite, norėdami matyti oro stebėjimo ir prognozės.

Norėdami pakeisti žemėlapį: spustelėkite ant žalios mygtukų su juodo kryžiaus žemyn,; žalią mygtuką su brūkšneliu, jei norite nutolinti; arba žalių rodyklių gretimoms žemėlapius.


METAR-TAF: